Popple River, Wisconsin
Current Conditions -  °F | °C
As of 3:55 AM on Tuesday 21 Oct 2014 (Local Time) from KEGV Reporting Station
Overcast Overcast  
Wind Chill: 34°   Ceiling: 1400
Heat Index: 38°   Visibility: 10mi
Dew Point: 36°   Wind: 6mph
Humidity: 91%   Direction: 10°N
Pressure: 30.13"   Gusts: NA
Location:  45.9186°N, 88.7601°W
Report Text: KEGV 210855Z AUTO 01005KT 10SM OVC014 04/02 A3013 RMK AO2 T00350022
Loading
Personal Weather Stations






























Interactive Weather Map
Tropical Storm Tracking
New forecast layout! Learn more

10-Day Weather Forecast

Advertisements
Track Severe Weather on mobile